createdAt,value
2017-11-29T00:00:43.200Z,1.40
2017-11-29T00:03:11.684Z,1.50
2017-11-29T00:05:39.348Z,1.50
2017-11-29T00:08:07.538Z,1.60
2017-11-29T00:10:35.245Z,1.50
2017-11-29T00:13:03.682Z,1.70
2017-11-29T00:15:31.485Z,1.70
2017-11-29T00:17:59.631Z,1.70
2017-11-29T00:20:27.666Z,1.90
2017-11-29T00:22:55.524Z,1.90
2017-11-29T00:25:23.188Z,1.90
2017-11-29T00:27:50.854Z,2.00
2017-11-29T00:30:18.633Z,2.00
2017-11-29T00:32:46.320Z,2.00
2017-11-29T00:35:15.087Z,2.10
2017-11-29T00:37:42.928Z,2.10
2017-11-29T00:40:12.108Z,2.20
2017-11-29T00:42:39.768Z,2.20
2017-11-29T00:45:07.509Z,2.20
2017-11-29T00:47:35.966Z,2.20
2017-11-29T00:50:03.736Z,2.20
2017-11-29T00:52:32.172Z,2.50
2017-11-29T00:54:59.851Z,2.50
2017-11-29T00:57:27.613Z,2.40
2017-11-29T00:59:56.063Z,2.50
2017-11-29T01:02:23.764Z,2.40
2017-11-29T01:04:51.580Z,2.40
2017-11-29T01:07:19.240Z,2.40
2017-11-29T01:09:46.897Z,2.30
2017-11-29T01:12:14.628Z,2.40
2017-11-29T01:14:43.046Z,2.20
2017-11-29T01:17:12.428Z,2.20
2017-11-29T01:19:40.081Z,2.30
2017-11-29T01:22:07.820Z,2.50
2017-11-29T01:24:36.360Z,2.20
2017-11-29T01:27:04.023Z,2.20
2017-11-29T01:29:31.679Z,2.10
2017-11-29T01:31:59.440Z,2.00
2017-11-29T01:34:27.160Z,2.10
2017-11-29T01:36:54.852Z,2.20
2017-11-29T01:39:22.614Z,2.20
2017-11-29T01:41:50.272Z,2.30
2017-11-29T01:44:17.978Z,2.40
2017-11-29T01:46:46.635Z,2.40
2017-11-29T01:49:14.284Z,2.40
2017-11-29T01:51:41.984Z,2.40
2017-11-29T01:54:10.574Z,2.40
2017-11-29T01:56:38.232Z,2.40
2017-11-29T01:59:06.651Z,2.40
2017-11-29T02:01:34.423Z,2.40
2017-11-29T02:04:02.077Z,2.40
2017-11-29T02:06:29.761Z,2.30
2017-11-29T02:08:57.523Z,2.30
2017-11-29T02:11:25.384Z,2.30
2017-11-29T02:13:53.045Z,2.30
2017-11-29T02:16:20.776Z,2.20
2017-11-29T02:18:48.505Z,2.20
2017-11-29T02:21:16.217Z,2.20
2017-11-29T02:23:44.092Z,2.20
2017-11-29T02:26:11.801Z,2.20
2017-11-29T02:28:39.520Z,2.30
2017-11-29T02:31:07.339Z,2.40
2017-11-29T02:33:35.049Z,2.20
2017-11-29T02:36:02.769Z,2.30
2017-11-29T02:38:30.662Z,2.30
2017-11-29T02:41:10.120Z,2.50
2017-11-29T02:43:38.724Z,2.30
2017-11-29T02:46:06.441Z,2.30
2017-11-29T02:48:34.932Z,2.30
2017-11-29T02:51:03.526Z,2.20
2017-11-29T02:53:32.048Z,2.30
2017-11-29T02:55:59.920Z,2.30
2017-11-29T02:58:28.539Z,2.30
2017-11-29T03:00:57.032Z,2.30
2017-11-29T03:03:25.492Z,2.30
2017-11-29T03:05:53.312Z,2.30
2017-11-29T03:08:20.981Z,2.20
2017-11-29T03:10:48.680Z,2.10
2017-11-29T03:13:17.257Z,2.30
2017-11-29T03:15:44.921Z,2.30
2017-11-29T03:18:13.339Z,2.30
2017-11-29T03:20:42.317Z,2.30
2017-11-29T03:23:10.098Z,2.30
2017-11-29T03:25:37.760Z,2.50
2017-11-29T03:28:05.420Z,2.40
2017-11-29T03:30:33.303Z,2.40
2017-11-29T03:33:00.960Z,2.30
2017-11-29T03:35:28.637Z,2.30
2017-11-29T03:37:56.408Z,2.30
2017-11-29T03:40:24.840Z,2.40
2017-11-29T03:42:53.280Z,2.50
2017-11-29T03:45:21.832Z,2.50
2017-11-29T03:47:49.489Z,2.50
2017-11-29T03:50:17.150Z,2.40
2017-11-29T03:52:44.925Z,2.60
2017-11-29T03:55:13.353Z,2.50
2017-11-29T03:57:41.124Z,2.40
2017-11-29T04:00:08.893Z,2.50
2017-11-29T04:02:36.552Z,2.60
2017-11-29T04:05:04.224Z,2.60
2017-11-29T04:07:32.087Z,2.70
2017-11-29T04:09:59.826Z,2.70
2017-11-29T04:12:27.567Z,2.70
2017-11-29T04:14:55.592Z,2.50
2017-11-29T04:17:23.326Z,2.60
2017-11-29T04:19:51.032Z,2.60
2017-11-29T04:22:19.633Z,2.50
2017-11-29T04:24:47.353Z,2.50
2017-11-29T04:27:15.052Z,2.60
2017-11-29T04:29:42.864Z,2.50
2017-11-29T04:32:10.528Z,2.60
2017-11-29T04:34:38.192Z,2.50
2017-11-29T04:37:06.008Z,2.40
2017-11-29T04:39:33.701Z,2.50
2017-11-29T04:42:01.372Z,2.40
2017-11-29T04:44:29.156Z,2.40
2017-11-29T04:46:57.591Z,2.50
2017-11-29T04:49:25.327Z,2.50
2017-11-29T04:51:53.153Z,2.50
2017-11-29T04:54:21.648Z,2.40
2017-11-29T04:56:50.128Z,2.50
2017-11-29T04:59:18.052Z,2.50
2017-11-29T05:01:45.752Z,2.50
2017-11-29T05:04:14.257Z,2.50
2017-11-29T05:06:42.127Z,2.50
2017-11-29T05:09:09.884Z,2.70
2017-11-29T05:11:37.665Z,2.70
2017-11-29T05:14:05.654Z,2.60
2017-11-29T05:16:33.376Z,2.60
2017-11-29T05:19:01.092Z,2.50
2017-11-29T05:21:29.737Z,2.70
2017-11-29T05:23:57.460Z,2.70
2017-11-29T05:26:25.333Z,2.70
2017-11-29T05:28:53.326Z,2.70
2017-11-29T05:31:21.073Z,2.60
2017-11-29T05:33:48.804Z,2.80
2017-11-29T05:36:16.695Z,2.80
2017-11-29T05:38:44.470Z,2.90
2017-11-29T05:41:12.204Z,2.80
2017-11-29T05:43:40.105Z,2.80
2017-11-29T05:46:07.869Z,2.80
2017-11-29T05:48:35.633Z,2.90
2017-11-29T05:51:03.493Z,2.80
2017-11-29T05:53:31.213Z,2.80
2017-11-29T05:55:58.933Z,2.80
2017-11-29T05:58:26.778Z,2.70
2017-11-29T06:00:54.531Z,2.80
2017-11-29T06:03:22.224Z,2.70
2017-11-29T06:05:50.077Z,3.00
2017-11-29T06:08:17.798Z,3.00
2017-11-29T06:10:45.497Z,2.90
2017-11-29T06:13:13.361Z,2.90
2017-11-29T06:15:41.104Z,2.80
2017-11-29T06:18:08.841Z,2.80
2017-11-29T06:20:36.644Z,2.80
2017-11-29T06:23:04.441Z,2.90
2017-11-29T06:25:32.885Z,2.70
2017-11-29T06:28:00.728Z,2.70
2017-11-29T06:30:28.444Z,2.80
2017-11-29T06:32:56.858Z,2.70
2017-11-29T06:35:24.633Z,2.70
2017-11-29T06:37:52.286Z,2.80
2017-11-29T06:40:19.937Z,2.80
2017-11-29T06:42:47.695Z,2.80
2017-11-29T06:45:15.356Z,2.90
2017-11-29T06:47:43.028Z,2.80
2017-11-29T06:50:10.900Z,2.80
2017-11-29T06:52:38.655Z,2.80
2017-11-29T06:55:06.315Z,2.90
2017-11-29T06:57:34.099Z,2.90
2017-11-29T07:00:02.540Z,3.00
2017-11-29T07:02:30.201Z,3.00
2017-11-29T07:04:57.996Z,3.00
2017-11-29T07:07:26.052Z,2.90
2017-11-29T07:09:53.735Z,2.90
2017-11-29T07:12:21.510Z,2.90
2017-11-29T07:14:49.984Z,2.90
2017-11-29T07:17:18.409Z,2.90
2017-11-29T07:19:46.174Z,2.90
2017-11-29T07:22:13.844Z,2.90
2017-11-29T07:24:41.642Z,3.00
2017-11-29T07:27:09.482Z,2.90
2017-11-29T07:29:37.188Z,3.00
2017-11-29T07:32:04.878Z,3.00
2017-11-29T07:34:32.583Z,3.10
2017-11-29T07:37:01.011Z,3.20
2017-11-29T07:39:28.716Z,3.20
2017-11-29T07:41:56.375Z,3.10
2017-11-29T07:44:24.043Z,3.10
2017-11-29T07:46:52.521Z,3.00
2017-11-29T07:49:20.952Z,3.10
2017-11-29T07:51:49.411Z,3.20
2017-11-29T07:54:17.086Z,3.20
2017-11-29T07:56:44.847Z,3.20
2017-11-29T07:59:12.722Z,3.20
2017-11-29T08:01:40.481Z,3.20
2017-11-29T08:04:08.192Z,3.20
2017-11-29T08:06:36.673Z,3.20
2017-11-29T08:09:04.404Z,3.10
2017-11-29T08:11:32.101Z,3.20
2017-11-29T08:13:59.763Z,3.20
2017-11-29T08:16:27.460Z,3.20
2017-11-29T08:18:55.124Z,3.30
2017-11-29T08:21:22.828Z,3.40
2017-11-29T08:23:51.291Z,3.40
2017-11-29T08:26:19.057Z,3.40
2017-11-29T08:28:47.537Z,3.50
2017-11-29T08:31:16.108Z,3.40
2017-11-29T08:33:43.809Z,3.40
2017-11-29T08:36:11.616Z,3.40
2017-11-29T08:38:39.296Z,3.50
2017-11-29T08:41:07.064Z,3.50
2017-11-29T08:43:35.555Z,3.60
2017-11-29T08:46:04.109Z,3.60
2017-11-29T08:48:31.847Z,3.50
2017-11-29T08:50:59.568Z,3.70
2017-11-29T08:53:27.272Z,3.70
2017-11-29T08:55:54.968Z,3.80
2017-11-29T08:58:23.496Z,3.90
2017-11-29T09:00:51.209Z,3.90
2017-11-29T09:03:19.709Z,3.90
2017-11-29T09:05:47.445Z,3.90
2017-11-29T09:08:15.988Z,3.70
2017-11-29T09:10:43.723Z,3.80
2017-11-29T09:13:11.491Z,3.80
2017-11-29T09:15:39.214Z,3.90
2017-11-29T09:18:07.751Z,3.80
2017-11-29T09:20:35.489Z,3.80
2017-11-29T09:23:03.256Z,3.70
2017-11-29T09:25:30.974Z,3.70
2017-11-29T09:27:59.509Z,3.70
2017-11-29T09:30:27.241Z,3.70
2017-11-29T09:32:55.021Z,3.70
2017-11-29T09:35:22.775Z,3.80
2017-11-29T09:37:50.554Z,3.80
2017-11-29T09:40:18.276Z,3.90
2017-11-29T09:42:46.049Z,4.10
2017-11-29T09:45:13.776Z,4.00
2017-11-29T09:47:41.565Z,4.10
2017-11-29T09:50:09.370Z,3.90
2017-11-29T09:52:37.129Z,4.00
2017-11-29T09:55:04.937Z,4.00
2017-11-29T09:57:33.477Z,4.10
2017-11-29T10:00:01.251Z,4.10
2017-11-29T10:02:28.971Z,4.10
2017-11-29T10:04:56.741Z,4.10
2017-11-29T10:07:24.492Z,4.00
2017-11-29T10:09:52.264Z,4.10
2017-11-29T10:12:19.993Z,4.20
2017-11-29T10:14:48.523Z,4.20
2017-11-29T10:17:16.248Z,4.20
2017-11-29T10:19:44.016Z,4.20
2017-11-29T10:22:11.737Z,4.10
2017-11-29T10:24:40.272Z,4.10
2017-11-29T10:27:08.010Z,4.10
2017-11-29T10:29:35.779Z,4.10
2017-11-29T10:32:03.513Z,4.20
2017-11-29T10:34:32.053Z,4.30
2017-11-29T10:36:59.819Z,4.30
2017-11-29T10:39:27.629Z,4.20
2017-11-29T10:41:55.351Z,4.30
2017-11-29T10:44:23.120Z,4.40
2017-11-29T10:46:50.851Z,4.50
2017-11-29T10:49:18.640Z,4.50
2017-11-29T10:51:46.359Z,4.50
2017-11-29T10:54:14.131Z,4.50
2017-11-29T10:56:41.859Z,4.60
2017-11-29T10:59:09.624Z,4.40
2017-11-29T11:01:37.349Z,4.50
2017-11-29T11:04:05.115Z,4.60
2017-11-29T11:06:32.956Z,4.60
2017-11-29T11:09:00.733Z,4.70
2017-11-29T11:11:28.467Z,4.60
2017-11-29T11:13:56.260Z,4.70
2017-11-29T11:16:24.000Z,4.70
2017-11-29T11:18:51.893Z,4.90
2017-11-29T11:21:20.402Z,4.90
2017-11-29T11:23:48.180Z,4.80
2017-11-29T11:26:15.953Z,4.80
2017-11-29T11:28:43.763Z,4.70
2017-11-29T11:31:12.262Z,4.80
2017-11-29T11:33:40.072Z,4.70
2017-11-29T11:36:07.774Z,4.80
2017-11-29T11:38:36.277Z,5.00
2017-11-29T11:41:04.456Z,4.90
2017-11-29T11:43:32.185Z,4.90
2017-11-29T11:46:00.731Z,5.00
2017-11-29T11:48:28.470Z,5.00
2017-11-29T11:50:56.242Z,5.00
2017-11-29T11:53:23.973Z,5.10
2017-11-29T11:55:51.748Z,5.20
2017-11-29T11:58:19.485Z,5.20
2017-11-29T12:00:47.263Z,5.20
2017-11-29T12:03:15.050Z,5.20
2017-11-29T12:05:42.941Z,5.40
2017-11-29T12:08:10.660Z,5.40
2017-11-29T12:10:38.420Z,5.50
2017-11-29T12:13:06.157Z,5.50
2017-11-29T12:15:33.925Z,5.60
2017-11-29T12:18:01.669Z,5.60
2017-11-29T12:20:30.212Z,5.50
2017-11-29T12:22:57.945Z,5.50
2017-11-29T12:25:25.712Z,5.40
2017-11-29T12:27:53.600Z,5.30
2017-11-29T12:32:56.240Z,5.30
2017-11-29T12:35:24.025Z,5.30
2017-11-29T12:37:51.754Z,5.40
2017-11-29T12:40:19.537Z,5.70
2017-11-29T12:42:47.259Z,5.90
2017-11-29T12:45:15.787Z,6.00
2017-11-29T12:47:43.503Z,5.90
2017-11-29T12:50:23.912Z,6.20
2017-11-29T12:52:51.623Z,6.20
2017-11-29T12:55:20.176Z,6.10
2017-11-29T12:57:47.944Z,6.00
2017-11-29T13:00:15.829Z,5.90
2017-11-29T13:02:44.314Z,5.60
2017-11-29T13:05:12.786Z,5.40
2017-11-29T13:07:41.515Z,5.20
2017-11-29T13:10:09.265Z,5.10
2017-11-29T13:12:36.980Z,5.20
2017-11-29T13:15:04.746Z,5.30
2017-11-29T13:17:33.292Z,5.30
2017-11-29T13:20:01.830Z,5.30
2017-11-29T13:22:29.607Z,5.30
2017-11-29T13:24:57.393Z,5.20
2017-11-29T13:27:25.123Z,5.30
2017-11-29T13:29:52.895Z,5.40
2017-11-29T13:32:20.615Z,5.30
2017-11-29T13:34:49.136Z,5.20
2017-11-29T13:37:16.899Z,5.20
2017-11-29T13:39:45.280Z,5.20
2017-11-29T13:42:13.068Z,5.40
2017-11-29T13:44:40.859Z,5.50
2017-11-29T13:47:09.376Z,5.30
2017-11-29T13:49:37.144Z,5.30
2017-11-29T13:52:04.968Z,5.30
2017-11-29T13:54:33.504Z,5.10
2017-11-29T13:57:01.277Z,5.10
2017-11-29T13:59:29.216Z,5.30
2017-11-29T14:01:57.240Z,5.30
2017-11-29T14:04:25.888Z,5.20
2017-11-29T14:06:53.590Z,5.20
2017-11-29T14:09:22.024Z,5.10
2017-11-29T14:11:49.778Z,5.10
2017-11-29T14:14:17.471Z,5.10
2017-11-29T14:16:45.248Z,5.20
2017-11-29T14:19:13.713Z,5.00
2017-11-29T14:21:41.449Z,5.00
2017-11-29T14:24:09.105Z,5.20
2017-11-29T14:26:36.864Z,5.40
2017-11-29T14:29:04.532Z,5.30
2017-11-29T14:31:32.219Z,5.40
2017-11-29T14:33:59.979Z,5.20
2017-11-29T14:36:28.536Z,5.40
2017-11-29T14:38:56.266Z,5.40
2017-11-29T14:41:24.019Z,5.30
2017-11-29T14:43:52.774Z,5.10
2017-11-29T14:46:21.336Z,4.70
2017-11-29T14:48:48.990Z,4.60
2017-11-29T14:51:16.715Z,4.70
2017-11-29T14:53:44.389Z,4.70
2017-11-29T14:56:12.140Z,4.80
2017-11-29T14:58:39.836Z,4.50
2017-11-29T15:01:07.570Z,4.60
2017-11-29T15:03:35.244Z,4.40
2017-11-29T15:06:02.960Z,4.20
2017-11-29T15:08:30.619Z,4.10
2017-11-29T15:10:58.268Z,4.50
2017-11-29T15:13:25.974Z,4.50
2017-11-29T15:15:53.641Z,4.60
2017-11-29T15:18:21.345Z,4.60
2017-11-29T15:20:49.771Z,4.20
2017-11-29T15:23:18.368Z,4.20
2017-11-29T15:25:46.028Z,4.20
2017-11-29T15:28:13.748Z,4.40
2017-11-29T15:30:41.471Z,4.50
2017-11-29T15:33:10.096Z,4.00
2017-11-29T15:35:38.560Z,3.60
2017-11-29T15:38:06.317Z,3.60
2017-11-29T15:40:34.096Z,3.70
2017-11-29T15:43:01.865Z,3.50
2017-11-29T15:45:29.541Z,3.60
2017-11-29T15:47:57.335Z,3.60
2017-11-29T15:50:25.920Z,3.80
2017-11-29T15:52:54.661Z,3.70
2017-11-29T15:55:23.088Z,3.70
2017-11-29T15:57:51.702Z,3.40
2017-11-29T16:00:19.448Z,3.40
2017-11-29T16:02:47.164Z,3.50
2017-11-29T16:05:14.881Z,3.30
2017-11-29T16:07:42.647Z,3.50
2017-11-29T16:10:10.368Z,3.20
2017-11-29T16:12:38.892Z,2.80
2017-11-29T16:15:06.611Z,2.80
2017-11-29T16:17:35.149Z,3.00
2017-11-29T16:20:02.902Z,3.00
2017-11-29T16:22:30.609Z,2.90
2017-11-29T16:24:59.155Z,3.10
2017-11-29T16:27:26.887Z,3.10
2017-11-29T16:29:54.778Z,2.90
2017-11-29T16:32:22.500Z,2.80
2017-11-29T16:34:50.239Z,2.80
2017-11-29T16:37:18.720Z,2.90
2017-11-29T16:39:47.247Z,3.10
2017-11-29T16:42:15.068Z,3.10
2017-11-29T16:44:42.855Z,3.20
2017-11-29T16:47:10.528Z,3.30
2017-11-29T16:49:38.260Z,3.30
2017-11-29T16:52:05.936Z,3.10
2017-11-29T16:54:33.680Z,3.10
2017-11-29T16:57:01.365Z,3.20
2017-11-29T16:59:29.084Z,3.50
2017-11-29T17:01:57.534Z,3.40
2017-11-29T17:04:25.312Z,3.40
2017-11-29T17:06:53.059Z,3.40
2017-11-29T17:09:20.772Z,3.10
2017-11-29T17:11:48.507Z,3.20
2017-11-29T17:14:16.993Z,3.30
2017-11-29T17:16:45.485Z,3.40
2017-11-29T17:19:13.225Z,3.30
2017-11-29T17:21:41.760Z,3.50
2017-11-29T17:24:09.457Z,3.50
2017-11-29T17:26:37.948Z,3.40
2017-11-29T17:29:06.416Z,3.30
2017-11-29T17:31:34.949Z,3.30
2017-11-29T17:34:02.725Z,3.30
2017-11-29T17:36:30.485Z,3.40
2017-11-29T17:38:58.156Z,3.30
2017-11-29T17:41:25.879Z,3.10
2017-11-29T17:43:53.546Z,3.30
2017-11-29T17:46:21.300Z,3.30
2017-11-29T17:48:48.984Z,3.20
2017-11-29T17:51:16.699Z,3.10
2017-11-29T17:53:45.136Z,3.00
2017-11-29T17:56:12.852Z,3.00
2017-11-29T17:58:40.548Z,3.10
2017-11-29T18:01:08.296Z,3.20
2017-11-29T18:03:36.005Z,3.10
2017-11-29T18:06:04.510Z,3.10
2017-11-29T18:08:32.189Z,3.10
2017-11-29T18:10:59.913Z,3.20
2017-11-29T18:13:28.368Z,3.20
2017-11-29T18:15:56.096Z,3.20
2017-11-29T18:18:23.799Z,3.10
2017-11-29T18:20:52.341Z,3.00
2017-11-29T18:23:20.057Z,3.00
2017-11-29T18:25:48.569Z,2.90
2017-11-29T18:28:16.246Z,2.90
2017-11-29T18:30:43.980Z,3.00
2017-11-29T18:33:11.665Z,3.00
2017-11-29T18:35:39.369Z,2.90
2017-11-29T18:38:07.808Z,3.10
2017-11-29T18:40:35.568Z,3.10
2017-11-29T18:43:03.291Z,3.00
2017-11-29T18:45:31.045Z,2.90
2017-11-29T18:47:58.855Z,2.90
2017-11-29T18:50:26.556Z,3.00
2017-11-29T18:52:55.052Z,2.90
2017-11-29T18:55:22.750Z,2.90
2017-11-29T18:57:50.508Z,3.00
2017-11-29T19:00:18.235Z,2.90
2017-11-29T19:02:45.968Z,3.00
2017-11-29T19:05:14.445Z,3.00
2017-11-29T19:07:42.957Z,3.00
2017-11-29T19:10:10.675Z,2.90
2017-11-29T19:12:38.442Z,2.80
2017-11-29T19:15:06.124Z,2.80
2017-11-29T19:17:34.669Z,2.90
2017-11-29T19:20:02.469Z,2.80
2017-11-29T19:22:30.213Z,2.80
2017-11-29T19:24:58.688Z,2.70
2017-11-29T19:27:27.188Z,2.60
2017-11-29T19:29:54.870Z,2.60
2017-11-29T19:32:22.644Z,2.70
2017-11-29T19:34:50.329Z,2.60
2017-11-29T19:37:18.070Z,2.60
2017-11-29T19:39:46.553Z,2.70
2017-11-29T19:42:14.288Z,2.70
2017-11-29T19:44:41.948Z,2.80
2017-11-29T19:47:09.653Z,2.80
2017-11-29T19:49:37.313Z,3.00
2017-11-29T19:52:05.023Z,3.10
2017-11-29T19:54:32.696Z,3.10
2017-11-29T19:57:00.410Z,3.00
2017-11-29T19:59:28.836Z,2.90
2017-11-29T20:01:56.537Z,2.80
2017-11-29T20:04:24.204Z,3.10
2017-11-29T20:06:52.738Z,3.00
2017-11-29T20:09:20.419Z,3.00
2017-11-29T20:11:48.197Z,3.10
2017-11-29T20:14:15.924Z,3.10
2017-11-29T20:16:43.653Z,2.90
2017-11-29T20:19:11.345Z,3.00
2017-11-29T20:21:39.052Z,3.00
2017-11-29T20:24:07.577Z,3.00
2017-11-29T20:26:35.261Z,3.00
2017-11-29T20:29:03.001Z,3.00
2017-11-29T20:31:30.693Z,3.00
2017-11-29T20:33:58.448Z,3.00
2017-11-29T20:36:26.155Z,3.00
2017-11-29T20:38:53.891Z,3.00
2017-11-29T20:41:21.564Z,3.10
2017-11-29T20:43:50.034Z,3.00
2017-11-29T20:46:18.479Z,2.90
2017-11-29T20:48:46.177Z,3.00
2017-11-29T20:51:16.119Z,3.00
2017-11-29T20:53:44.630Z,3.00
2017-11-29T20:56:12.643Z,3.00
2017-11-29T20:58:42.199Z,2.90
2017-11-29T21:01:11.353Z,2.90
2017-11-29T21:03:40.987Z,3.00
2017-11-29T21:06:10.446Z,2.80
2017-11-29T21:08:40.084Z,2.90
2017-11-29T21:11:09.568Z,3.10
2017-11-29T21:13:37.510Z,3.10
2017-11-29T21:16:06.078Z,3.00
2017-11-29T21:18:33.848Z,3.00
2017-11-29T21:21:01.505Z,2.90
2017-11-29T21:23:29.208Z,3.00
2017-11-29T21:25:56.872Z,3.00
2017-11-29T21:28:24.576Z,3.10
2017-11-29T21:30:52.252Z,3.20
2017-11-29T21:33:20.718Z,3.10
2017-11-29T21:35:48.380Z,3.10
2017-11-29T21:38:16.083Z,3.10
2017-11-29T21:40:43.744Z,3.20
2017-11-29T21:43:11.449Z,3.10
2017-11-29T21:45:39.169Z,3.10
2017-11-29T21:48:13.530Z,3.00
2017-11-29T21:50:42.891Z,2.90
2017-11-29T21:53:10.592Z,2.90
2017-11-29T21:55:38.251Z,2.70
2017-11-29T21:58:05.961Z,2.70
2017-11-29T22:00:33.632Z,2.60
2017-11-29T22:03:01.339Z,2.50
2017-11-29T22:05:30.274Z,2.30
2017-11-29T22:07:58.072Z,2.40
2017-11-29T22:10:25.838Z,2.20
2017-11-29T22:12:53.592Z,2.30
2017-11-29T22:15:21.383Z,2.00
2017-11-29T22:17:50.223Z,2.10
2017-11-29T22:20:17.894Z,2.10
2017-11-29T22:22:45.600Z,2.20
2017-11-29T22:25:14.083Z,2.00
2017-11-29T22:27:41.845Z,2.00
2017-11-29T22:30:09.552Z,2.20
2017-11-29T22:32:38.043Z,1.80
2017-11-29T22:35:05.706Z,1.80
2017-11-29T22:37:33.369Z,1.50
2017-11-29T22:40:01.200Z,1.60
2017-11-29T22:42:28.997Z,1.80
2017-11-29T22:44:56.701Z,1.90
2017-11-29T22:47:24.361Z,1.90
2017-11-29T22:49:52.093Z,2.00
2017-11-29T22:52:20.524Z,2.00
2017-11-29T22:54:48.351Z,2.00
2017-11-29T22:57:16.160Z,2.10
2017-11-29T22:59:43.872Z,2.10
2017-11-29T23:02:12.338Z,2.20
2017-11-29T23:04:40.157Z,2.20
2017-11-29T23:07:07.880Z,2.20
2017-11-29T23:09:35.722Z,2.20
2017-11-29T23:12:04.299Z,2.20
2017-11-29T23:14:32.855Z,2.10
2017-11-29T23:17:00.765Z,2.10
2017-11-29T23:19:28.484Z,2.20
2017-11-29T23:21:56.156Z,2.20
2017-11-29T23:24:23.922Z,2.20
2017-11-29T23:26:51.663Z,2.20
2017-11-29T23:29:19.401Z,2.10
2017-11-29T23:31:47.091Z,2.10
2017-11-29T23:34:14.800Z,2.10
2017-11-29T23:36:42.472Z,2.10
2017-11-29T23:39:10.216Z,2.10
2017-11-29T23:41:37.885Z,2.10
2017-11-29T23:44:05.623Z,2.00
2017-11-29T23:46:34.074Z,2.00
2017-11-29T23:49:01.819Z,1.90
2017-11-29T23:51:29.520Z,2.00
2017-11-29T23:53:58.012Z,2.00
2017-11-29T23:56:25.680Z,2.00
2017-11-29T23:58:53.469Z,1.70
